This is the latest recevied weather packets stored in our database for station/object 7L2IWN-13. If no packets are shown the sender has not sent any weather packets the latest 10 day(s).
| Time | Temp. | Humidity | Pressure | Rain* | Wind** | Luminosity | Snow |
|---|---|---|---|---|---|---|---|
| 1777988506 | 11.11° C | 85% | 1020.8 hPa | 0 mm | - | - | - |
| 1777987066 | 11.11° C | 85% | 1020.7 hPa | 0 mm | - | - | - |
| 1777986346 | 11.67° C | 86% | 1020.7 hPa | 0 mm | - | - | - |
| 1777985626 | 11.11° C | 85% | 1020.7 hPa | 0 mm | - | - | - |
| 1777984905 | 11.67° C | 84% | 1020.5 hPa | 0 mm | - | - | - |
| 1777984187 | 12.22° C | 82% | 1020.4 hPa | 0 mm | - | - | - |
| 1777983499 | 12.22° C | 81% | 1020.3 hPa | 0 mm | - | - | - |
| 1777982778 | 12.22° C | 79% | 1020.2 hPa | 0 mm | - | - | - |
| 1777982059 | 12.78° C | 78% | 1019.9 hPa | 0 mm | - | - | - |
| 1777981338 | 12.78° C | 77% | 1019.9 hPa | 0 mm | - | - | - |
| 1777980618 | 13.33° C | 75% | 1019.6 hPa | 0 mm | - | - | - |
| 1777979899 | 13.33° C | 74% | 1019.2 hPa | 0 mm | - | - | - |
| 1777979179 | 13.89° C | 73% | 1019.4 hPa | 0 mm | - | - | - |
| 1777978459 | 14.44° C | 70% | 1018.9 hPa | 0 mm | - | - | - |
| 1777977740 | 14.44° C | 71% | 1018.9 hPa | 0 mm | - | - | - |
| 1777977018 | 14.44° C | 69% | 1018.4 hPa | 0 mm | - | - | - |
| 1777976299 | 15° C | 68% | 1018.4 hPa | 0 mm | - | - | - |
| 1777975578 | 15.56° C | 65% | 1018.4 hPa | 0 mm | - | - | - |
| 1777974859 | 16.67° C | 62% | 1018.4 hPa | 0 mm | - | - | - |
| 1777974140 | 17.78° C | 54% | 1017.9 hPa | 0 mm | - | - | - |
| 1777973418 | 18.33° C | 54% | 1018.1 hPa | 0 mm | - | - | - |
| 1777971979 | 18.89° C | 52% | 1017.5 hPa | 0 mm | - | - | - |
| 1777971259 | 18.89° C | 50% | 1017.5 hPa | 0 mm | - | - | - |
| 1777970539 | 19.44° C | 48% | 1017.4 hPa | 0 mm | - | - | - |
| 1777969818 | 19.44° C | 47% | 1017.1 hPa | 0 mm | - | - | - |
* Rain latest hour (hover to see other rain measurements)
** Current wind speed in m/s (hover to see current wind gust speed)